Archbold, OH

8:10 PM EST on March 03, 2015 (GMT -0500)
3 Miles ESE Archbold, OH | Change Station
CLOSE
Current Station
Personal Weather Station
Location: Archbold, OH
Elevation: 741 ft
Nearby Weather Stations

Elev 741 ft 41.49 °N, 84.26 °W | Updated 19 seconds ago

Fog
Fog
36.3 °F
Feels Like 26 °F
N
19.9
Wind Variable Wind from WSW
Gusts 19.9 mph

Today
High -- | Low -- °F
--% Chance of Precip.
Yesterday
High -- | Low -- °F
Precip. -- in
7:09 AM 6:29 PM
Waxing Gibbous, 97% visible
Pressure 29.71 in
Visibility 10.0 miles
Clouds Overcast 1100 ft
Windchill 26 °F
Dew Point 33 °F
Humidity 88%
Rainfall 0.04 in
Snow Depth Not available.
UV 0 out of 12
Pollen .40 out of 12
Air Quality Not available.
Flu Activity Not available.
METAR KUSE 040055Z AUTO 27014G22KT 10SM OVC011 02/01 A2971 RMK AO2

More Conditions Fewer Conditions

Pressure 29.71 in
Visibility 10.0 miles
Clouds Overcast 1100 ft
Windchill 26 °F
Dew Point 33 °F
Humidity 88%
Rainfall 0.04 in
Snow Depth Not available.
UV 0 out of 12
Pollen .40 out of 12
Air Quality Not available.
Flu Activity Not available.
METAR KUSE 040055Z AUTO 27014G22KT 10SM OVC011 02/01 A2971 RMK AO2

More Conditions Fewer Conditions

10-Day Weather Forecast

Almanac

Astronomy

Mar. 03, 2015 Rise Set
Actual Time
Civil Twilight
Nautical Twilight
Astronomical Twilight
Moon
Length of Visible Light
Length of Day
Tomorrow will be .
, % of the Moon is Illuminated

Today's Extremes

State Highs State Lows

Community

WunderPhotos

Upload Photos

1,802,340 photos uploaded!

WunderBlogs® & News

Nearby

Air Quality

  Air Quality AQ Index Pollutant
Not available.

Snow Depth

Station Depth Elevation

Earthquake Activity

City Distance Mag. Time & Date
Minimum magnitude displayed is 2.5.

Coastal Water Temperatures

Place Temperature

Nearby Weather Stations